sensor_id;sensor_type;location;lat;lon;timestamp;P1;durP1;ratioP1;P2;durP2;ratioP2
4198;SDS011;2113;50.946;14.610;2023-06-01T00:02:25;5.00;;;3.22;;
4198;SDS011;2113;50.946;14.610;2023-06-01T00:04:53;10.70;;;3.38;;
4198;SDS011;2113;50.946;14.610;2023-06-01T00:07:21;5.78;;;3.13;;
4198;SDS011;2113;50.946;14.610;2023-06-01T00:09:50;9.13;;;3.47;;
4198;SDS011;2113;50.946;14.610;2023-06-01T00:12:19;5.35;;;3.10;;
4198;SDS011;2113;50.946;14.610;2023-06-01T00:14:47;6.65;;;3.20;;
4198;SDS011;2113;50.946;14.610;2023-06-01T00:17:17;5.10;;;2.85;;
4198;SDS011;2113;50.946;14.610;2023-06-01T00:19:46;7.50;;;2.90;;
4198;SDS011;2113;50.946;14.610;2023-06-01T00:22:14;5.20;;;3.13;;
4198;SDS011;2113;50.946;14.610;2023-06-01T00:24:43;3.95;;;2.70;;
4198;SDS011;2113;50.946;14.610;2023-06-01T00:27:12;6.03;;;3.40;;
4198;SDS011;2113;50.946;14.610;2023-06-01T00:29:40;8.43;;;4.05;;
4198;SDS011;2113;50.946;14.610;2023-06-01T00:32:09;6.03;;;3.70;;
4198;SDS011;2113;50.946;14.610;2023-06-01T00:34:38;5.18;;;2.90;;
4198;SDS011;2113;50.946;14.610;2023-06-01T00:37:08;5.85;;;3.00;;
4198;SDS011;2113;50.946;14.610;2023-06-01T00:39:36;5.75;;;3.13;;
4198;SDS011;2113;50.946;14.610;2023-06-01T00:42:04;7.97;;;3.70;;
4198;SDS011;2113;50.946;14.610;2023-06-01T00:44:33;6.38;;;3.40;;
4198;SDS011;2113;50.946;14.610;2023-06-01T00:47:02;7.70;;;3.35;;
4198;SDS011;2113;50.946;14.610;2023-06-01T00:49:30;8.68;;;3.20;;
4198;SDS011;2113;50.946;14.610;2023-06-01T00:51:59;4.03;;;2.63;;
4198;SDS011;2113;50.946;14.610;2023-06-01T00:54:28;7.15;;;3.17;;
4198;SDS011;2113;50.946;14.610;2023-06-01T00:56:56;10.88;;;3.65;;
4198;SDS011;2113;50.946;14.610;2023-06-01T00:59:25;8.27;;;3.35;;
4198;SDS011;2113;50.946;14.610;2023-06-01T01:01:53;5.30;;;3.65;;
4198;SDS011;2113;50.946;14.610;2023-06-01T01:04:21;5.00;;;3.50;;
4198;SDS011;2113;50.946;14.610;2023-06-01T01:06:55;6.40;;;4.28;;
4198;SDS011;2113;50.946;14.610;2023-06-01T01:09:35;6.57;;;3.30;;
4198;SDS011;2113;50.946;14.610;2023-06-01T01:12:10;10.48;;;3.38;;
4198;SDS011;2113;50.946;14.610;2023-06-01T01:14:46;5.43;;;3.50;;
4198;SDS011;2113;50.946;14.610;2023-06-01T01:17:21;8.15;;;3.75;;
4198;SDS011;2113;50.946;14.610;2023-06-01T01:20:01;6.80;;;4.05;;
4198;SDS011;2113;50.946;14.610;2023-06-01T01:22:52;6.03;;;3.33;;
4198;SDS011;2113;50.946;14.610;2023-06-01T01:25:45;6.75;;;4.25;;
4198;SDS011;2113;50.946;14.610;2023-06-01T01:28:33;5.15;;;2.80;;
4198;SDS011;2113;50.946;14.610;2023-06-01T01:31:05;5.72;;;3.22;;
4198;SDS011;2113;50.946;14.610;2023-06-01T01:33:39;5.38;;;3.42;;
4198;SDS011;2113;50.946;14.610;2023-06-01T01:36:09;5.32;;;3.05;;
4198;SDS011;2113;50.946;14.610;2023-06-01T01:38:38;7.28;;;3.47;;
4198;SDS011;2113;50.946;14.610;2023-06-01T01:44:02;5.32;;;3.47;;
4198;SDS011;2113;50.946;14.610;2023-06-01T01:46:32;5.07;;;3.50;;
4198;SDS011;2113;50.946;14.610;2023-06-01T01:49:09;4.65;;;3.08;;
4198;SDS011;2113;50.946;14.610;2023-06-01T01:51:44;4.10;;;2.95;;
4198;SDS011;2113;50.946;14.610;2023-06-01T01:54:20;7.50;;;3.72;;
4198;SDS011;2113;50.946;14.610;2023-06-01T01:56:51;5.45;;;3.33;;
4198;SDS011;2113;50.946;14.610;2023-06-01T01:59:25;7.63;;;4.03;;
4198;SDS011;2113;50.946;14.610;2023-06-01T02:01:54;9.98;;;3.22;;
4198;SDS011;2113;50.946;14.610;2023-06-01T02:04:24;8.70;;;3.75;;
4198;SDS011;2113;50.946;14.610;2023-06-01T02:06:52;4.43;;;2.78;;
4198;SDS011;2113;50.946;14.610;2023-06-01T02:09:21;5.05;;;2.60;;
4198;SDS011;2113;50.946;14.610;2023-06-01T02:11:50;6.97;;;3.22;;
4198;SDS011;2113;50.946;14.610;2023-06-01T02:14:18;9.98;;;3.97;;
4198;SDS011;2113;50.946;14.610;2023-06-01T02:16:48;5.97;;;2.78;;
4198;SDS011;2113;50.946;14.610;2023-06-01T02:19:17;5.00;;;3.00;;
4198;SDS011;2113;50.946;14.610;2023-06-01T02:21:45;4.70;;;2.78;;
4198;SDS011;2113;50.946;14.610;2023-06-01T02:24:14;4.57;;;2.95;;
4198;SDS011;2113;50.946;14.610;2023-06-01T02:26:42;9.57;;;3.58;;
4198;SDS011;2113;50.946;14.610;2023-06-01T02:29:12;5.93;;;3.38;;
4198;SDS011;2113;50.946;14.610;2023-06-01T02:31:41;7.45;;;3.67;;
4198;SDS011;2113;50.946;14.610;2023-06-01T02:34:10;7.35;;;3.78;;
4198;SDS011;2113;50.946;14.610;2023-06-01T02:36:39;6.97;;;3.00;;
4198;SDS011;2113;50.946;14.610;2023-06-01T02:39:07;6.65;;;2.92;;
4198;SDS011;2113;50.946;14.610;2023-06-01T02:41:36;8.27;;;3.22;;
4198;SDS011;2113;50.946;14.610;2023-06-01T02:44:04;5.18;;;3.25;;
4198;SDS011;2113;50.946;14.610;2023-06-01T02:46:33;7.50;;;3.42;;
4198;SDS011;2113;50.946;14.610;2023-06-01T02:49:01;8.55;;;3.08;;
4198;SDS011;2113;50.946;14.610;2023-06-01T02:51:32;6.07;;;2.90;;
4198;SDS011;2113;50.946;14.610;2023-06-01T02:54:07;7.20;;;3.40;;
4198;SDS011;2113;50.946;14.610;2023-06-01T02:56:35;6.55;;;3.10;;
4198;SDS011;2113;50.946;14.610;2023-06-01T02:59:20;6.03;;;3.42;;
4198;SDS011;2113;50.946;14.610;2023-06-01T03:01:56;5.88;;;2.63;;
4198;SDS011;2113;50.946;14.610;2023-06-01T03:04:25;7.90;;;3.35;;
4198;SDS011;2113;50.946;14.610;2023-06-01T03:06:57;4.45;;;3.10;;
4198;SDS011;2113;50.946;14.610;2023-06-01T03:09:36;3.60;;;2.35;;
4198;SDS011;2113;50.946;14.610;2023-06-01T03:12:09;11.65;;;3.47;;
4198;SDS011;2113;50.946;14.610;2023-06-01T03:14:39;7.72;;;3.00;;
4198;SDS011;2113;50.946;14.610;2023-06-01T03:17:08;5.43;;;3.05;;
4198;SDS011;2113;50.946;14.610;2023-06-01T03:19:37;4.88;;;2.85;;
4198;SDS011;2113;50.946;14.610;2023-06-01T03:22:16;6.47;;;2.95;;
4198;SDS011;2113;50.946;14.610;2023-06-01T03:24:44;5.22;;;2.92;;
4198;SDS011;2113;50.946;14.610;2023-06-01T03:27:19;7.05;;;3.35;;
4198;SDS011;2113;50.946;14.610;2023-06-01T03:29:48;7.78;;;3.20;;
4198;SDS011;2113;50.946;14.610;2023-06-01T03:32:17;5.30;;;2.97;;
4198;SDS011;2113;50.946;14.610;2023-06-01T03:34:46;4.30;;;2.83;;
4198;SDS011;2113;50.946;14.610;2023-06-01T03:37:16;6.50;;;3.70;;
4198;SDS011;2113;50.946;14.610;2023-06-01T03:39:45;3.75;;;2.45;;
4198;SDS011;2113;50.946;14.610;2023-06-01T03:42:14;5.10;;;2.95;;
4198;SDS011;2113;50.946;14.610;2023-06-01T03:44:42;5.72;;;2.85;;
4198;SDS011;2113;50.946;14.610;2023-06-01T03:47:11;8.77;;;2.70;;
4198;SDS011;2113;50.946;14.610;2023-06-01T03:49:41;7.93;;;3.63;;
4198;SDS011;2113;50.946;14.610;2023-06-01T03:52:10;6.03;;;3.00;;
4198;SDS011;2113;50.946;14.610;2023-06-01T03:54:40;8.85;;;3.30;;
4198;SDS011;2113;50.946;14.610;2023-06-01T03:57:21;8.77;;;3.30;;
4198;SDS011;2113;50.946;14.610;2023-06-01T03:59:49;6.15;;;3.60;;
4198;SDS011;2113;50.946;14.610;2023-06-01T04:02:18;5.70;;;3.60;;
4198;SDS011;2113;50.946;14.610;2023-06-01T04:04:48;6.15;;;3.22;;
4198;SDS011;2113;50.946;14.610;2023-06-01T04:07:17;5.72;;;3.15;;
4198;SDS011;2113;50.946;14.610;2023-06-01T04:09:50;5.50;;;3.90;;
4198;SDS011;2113;50.946;14.610;2023-06-01T04:12:18;7.30;;;3.85;;
4198;SDS011;2113;50.946;14.610;2023-06-01T04:14:46;7.32;;;3.75;;
4198;SDS011;2113;50.946;14.610;2023-06-01T04:17:15;7.75;;;3.97;;
4198;SDS011;2113;50.946;14.610;2023-06-01T04:19:46;4.93;;;3.20;;
4198;SDS011;2113;50.946;14.610;2023-06-01T04:22:15;5.82;;;3.50;;
4198;SDS011;2113;50.946;14.610;2023-06-01T04:24:43;7.28;;;3.70;;
4198;SDS011;2113;50.946;14.610;2023-06-01T04:27:13;6.53;;;3.50;;
4198;SDS011;2113;50.946;14.610;2023-06-01T04:29:43;7.00;;;3.85;;
4198;SDS011;2113;50.946;14.610;2023-06-01T04:32:14;8.23;;;4.13;;
4198;SDS011;2113;50.946;14.610;2023-06-01T04:34:49;6.90;;;3.15;;
4198;SDS011;2113;50.946;14.610;2023-06-01T04:37:21;8.88;;;4.00;;
4198;SDS011;2113;50.946;14.610;2023-06-01T04:39:49;5.35;;;2.83;;
4198;SDS011;2113;50.946;14.610;2023-06-01T04:42:19;4.70;;;3.58;;
4198;SDS011;2113;50.946;14.610;2023-06-01T04:44:48;5.40;;;2.95;;
4198;SDS011;2113;50.946;14.610;2023-06-01T04:47:18;4.85;;;3.03;;
4198;SDS011;2113;50.946;14.610;2023-06-01T04:49:52;5.65;;;2.78;;
4198;SDS011;2113;50.946;14.610;2023-06-01T04:52:21;7.40;;;3.13;;
4198;SDS011;2113;50.946;14.610;2023-06-01T04:54:50;6.38;;;4.15;;
4198;SDS011;2113;50.946;14.610;2023-06-01T04:57:20;5.63;;;3.00;;
4198;SDS011;2113;50.946;14.610;2023-06-01T04:59:50;5.05;;;3.03;;
4198;SDS011;2113;50.946;14.610;2023-06-01T05:02:18;4.90;;;2.97;;
4198;SDS011;2113;50.946;14.610;2023-06-01T05:04:47;6.85;;;3.50;;
4198;SDS011;2113;50.946;14.610;2023-06-01T05:07:16;6.82;;;2.85;;
4198;SDS011;2113;50.946;14.610;2023-06-01T05:09:44;9.60;;;3.42;;
4198;SDS011;2113;50.946;14.610;2023-06-01T05:12:12;5.82;;;2.97;;
4198;SDS011;2113;50.946;14.610;2023-06-01T05:14:42;14.15;;;3.35;;
4198;SDS011;2113;50.946;14.610;2023-06-01T05:17:10;5.55;;;3.40;;
4198;SDS011;2113;50.946;14.610;2023-06-01T05:19:39;9.40;;;3.58;;
4198;SDS011;2113;50.946;14.610;2023-06-01T05:22:07;8.88;;;4.15;;
4198;SDS011;2113;50.946;14.610;2023-06-01T05:24:35;4.40;;;3.20;;
4198;SDS011;2113;50.946;14.610;2023-06-01T05:27:04;10.10;;;3.58;;
4198;SDS011;2113;50.946;14.610;2023-06-01T05:29:33;7.13;;;3.63;;
4198;SDS011;2113;50.946;14.610;2023-06-01T05:32:03;4.68;;;2.67;;
4198;SDS011;2113;50.946;14.610;2023-06-01T05:34:32;5.82;;;3.35;;
4198;SDS011;2113;50.946;14.610;2023-06-01T05:37:01;7.07;;;3.58;;
4198;SDS011;2113;50.946;14.610;2023-06-01T05:39:30;7.68;;;4.47;;
4198;SDS011;2113;50.946;14.610;2023-06-01T05:41:58;11.52;;;3.47;;
4198;SDS011;2113;50.946;14.610;2023-06-01T05:44:34;8.25;;;3.10;;
4198;SDS011;2113;50.946;14.610;2023-06-01T05:47:04;3.83;;;2.53;;
4198;SDS011;2113;50.946;14.610;2023-06-01T05:49:33;4.78;;;3.05;;
4198;SDS011;2113;50.946;14.610;2023-06-01T05:52:04;7.55;;;3.08;;
4198;SDS011;2113;50.946;14.610;2023-06-01T05:54:33;6.55;;;2.78;;
4198;SDS011;2113;50.946;14.610;2023-06-01T05:57:03;9.80;;;3.05;;
4198;SDS011;2113;50.946;14.610;2023-06-01T05:59:32;5.72;;;3.65;;
4198;SDS011;2113;50.946;14.610;2023-06-01T06:02:01;4.93;;;2.90;;
4198;SDS011;2113;50.946;14.610;2023-06-01T06:04:32;5.18;;;3.10;;
4198;SDS011;2113;50.946;14.610;2023-06-01T06:07:01;5.95;;;3.40;;
4198;SDS011;2113;50.946;14.610;2023-06-01T06:09:29;8.63;;;3.40;;
4198;SDS011;2113;50.946;14.610;2023-06-01T06:11:58;6.70;;;2.67;;
4198;SDS011;2113;50.946;14.610;2023-06-01T06:14:28;6.65;;;3.65;;
4198;SDS011;2113;50.946;14.610;2023-06-01T06:16:57;5.95;;;3.22;;
4198;SDS011;2113;50.946;14.610;2023-06-01T06:19:26;4.57;;;2.88;;
4198;SDS011;2113;50.946;14.610;2023-06-01T06:21:54;6.75;;;3.17;;
4198;SDS011;2113;50.946;14.610;2023-06-01T06:24:23;5.05;;;2.80;;
4198;SDS011;2113;50.946;14.610;2023-06-01T06:26:51;4.43;;;2.63;;
4198;SDS011;2113;50.946;14.610;2023-06-01T06:29:20;5.72;;;2.72;;
4198;SDS011;2113;50.946;14.610;2023-06-01T06:31:48;4.43;;;2.78;;
4198;SDS011;2113;50.946;14.610;2023-06-01T06:34:17;4.93;;;2.47;;
4198;SDS011;2113;50.946;14.610;2023-06-01T06:36:47;9.38;;;2.90;;
4198;SDS011;2113;50.946;14.610;2023-06-01T06:39:16;5.53;;;2.70;;
4198;SDS011;2113;50.946;14.610;2023-06-01T06:41:44;6.60;;;3.17;;
4198;SDS011;2113;50.946;14.610;2023-06-01T06:44:12;5.10;;;2.65;;
4198;SDS011;2113;50.946;14.610;2023-06-01T06:46:41;5.63;;;2.75;;
4198;SDS011;2113;50.946;14.610;2023-06-01T06:49:09;4.72;;;2.13;;
4198;SDS011;2113;50.946;14.610;2023-06-01T06:51:37;6.55;;;3.67;;
4198;SDS011;2113;50.946;14.610;2023-06-01T06:54:07;6.32;;;2.83;;
4198;SDS011;2113;50.946;14.610;2023-06-01T06:56:35;4.50;;;2.90;;
4198;SDS011;2113;50.946;14.610;2023-06-01T06:59:03;5.85;;;3.42;;
4198;SDS011;2113;50.946;14.610;2023-06-01T07:01:33;4.80;;;3.45;;
4198;SDS011;2113;50.946;14.610;2023-06-01T07:04:07;5.57;;;3.05;;
4198;SDS011;2113;50.946;14.610;2023-06-01T07:06:36;5.22;;;3.03;;
4198;SDS011;2113;50.946;14.610;2023-06-01T07:09:06;6.50;;;3.40;;
4198;SDS011;2113;50.946;14.610;2023-06-01T07:11:36;9.00;;;2.85;;
4198;SDS011;2113;50.946;14.610;2023-06-01T07:14:04;5.18;;;3.20;;
4198;SDS011;2113;50.946;14.610;2023-06-01T07:16:32;7.60;;;3.75;;
4198;SDS011;2113;50.946;14.610;2023-06-01T07:19:00;4.75;;;2.83;;
4198;SDS011;2113;50.946;14.610;2023-06-01T07:21:29;8.90;;;3.25;;
4198;SDS011;2113;50.946;14.610;2023-06-01T07:23:57;10.27;;;3.33;;
4198;SDS011;2113;50.946;14.610;2023-06-01T07:26:27;3.40;;;2.50;;
4198;SDS011;2113;50.946;14.610;2023-06-01T07:28:56;7.05;;;3.80;;
4198;SDS011;2113;50.946;14.610;2023-06-01T07:31:26;4.47;;;2.50;;
4198;SDS011;2113;50.946;14.610;2023-06-01T07:33:55;9.45;;;3.20;;
4198;SDS011;2113;50.946;14.610;2023-06-01T07:36:24;4.82;;;2.80;;
4198;SDS011;2113;50.946;14.610;2023-06-01T07:38:52;6.20;;;2.50;;
4198;SDS011;2113;50.946;14.610;2023-06-01T07:41:21;4.07;;;2.90;;
4198;SDS011;2113;50.946;14.610;2023-06-01T07:43:51;6.25;;;3.53;;
4198;SDS011;2113;50.946;14.610;2023-06-01T07:46:19;10.18;;;3.17;;
4198;SDS011;2113;50.946;14.610;2023-06-01T07:48:48;8.27;;;3.10;;
4198;SDS011;2113;50.946;14.610;2023-06-01T07:51:17;10.43;;;3.00;;
4198;SDS011;2113;50.946;14.610;2023-06-01T07:53:46;5.75;;;2.80;;
4198;SDS011;2113;50.946;14.610;2023-06-01T07:56:14;6.70;;;2.90;;
4198;SDS011;2113;50.946;14.610;2023-06-01T07:58:43;3.70;;;2.83;;
4198;SDS011;2113;50.946;14.610;2023-06-01T08:01:13;4.53;;;2.47;;
4198;SDS011;2113;50.946;14.610;2023-06-01T08:03:42;4.83;;;2.70;;
4198;SDS011;2113;50.946;14.610;2023-06-01T08:06:10;6.63;;;2.40;;
4198;SDS011;2113;50.946;14.610;2023-06-01T08:08:39;4.27;;;2.60;;
4198;SDS011;2113;50.946;14.610;2023-06-01T08:11:08;4.10;;;2.80;;
4198;SDS011;2113;50.946;14.610;2023-06-01T08:13:37;13.20;;;2.50;;
4198;SDS011;2113;50.946;14.610;2023-06-01T08:16:05;4.33;;;2.90;;
4198;SDS011;2113;50.946;14.610;2023-06-01T08:18:35;4.23;;;3.07;;
4198;SDS011;2113;50.946;14.610;2023-06-01T08:21:05;8.70;;;3.10;;
4198;SDS011;2113;50.946;14.610;2023-06-01T08:23:35;4.60;;;2.95;;
4198;SDS011;2113;50.946;14.610;2023-06-01T08:26:04;4.63;;;2.60;;
4198;SDS011;2113;50.946;14.610;2023-06-01T08:28:32;3.23;;;2.10;;
4198;SDS011;2113;50.946;14.610;2023-06-01T08:31:01;9.70;;;3.07;;
4198;SDS011;2113;50.946;14.610;2023-06-01T08:33:30;4.80;;;2.73;;
4198;SDS011;2113;50.946;14.610;2023-06-01T08:35:59;6.93;;;2.13;;
4198;SDS011;2113;50.946;14.610;2023-06-01T08:38:28;3.93;;;2.53;;
4198;SDS011;2113;50.946;14.610;2023-06-01T08:40:59;5.53;;;2.47;;
4198;SDS011;2113;50.946;14.610;2023-06-01T08:43:32;5.57;;;2.77;;
4198;SDS011;2113;50.946;14.610;2023-06-01T08:46:05;11.30;;;3.30;;
4198;SDS011;2113;50.946;14.610;2023-06-01T08:48:34;4.50;;;2.50;;
4198;SDS011;2113;50.946;14.610;2023-06-01T08:51:04;4.57;;;2.30;;
4198;SDS011;2113;50.946;14.610;2023-06-01T08:53:32;3.73;;;2.13;;
4198;SDS011;2113;50.946;14.610;2023-06-01T08:56:02;6.03;;;2.30;;
4198;SDS011;2113;50.946;14.610;2023-06-01T08:58:30;4.70;;;2.13;;
4198;SDS011;2113;50.946;14.610;2023-06-01T09:00:59;3.97;;;2.10;;
4198;SDS011;2113;50.946;14.610;2023-06-01T09:03:28;3.90;;;2.30;;
4198;SDS011;2113;50.946;14.610;2023-06-01T09:05:56;11.07;;;2.60;;
4198;SDS011;2113;50.946;14.610;2023-06-01T09:08:26;4.93;;;2.60;;
4198;SDS011;2113;50.946;14.610;2023-06-01T09:10:54;5.75;;;2.45;;
4198;SDS011;2113;50.946;14.610;2023-06-01T09:13:32;4.20;;;2.53;;
4198;SDS011;2113;50.946;14.610;2023-06-01T09:16:01;4.77;;;3.83;;
4198;SDS011;2113;50.946;14.610;2023-06-01T09:18:30;4.43;;;2.40;;
4198;SDS011;2113;50.946;14.610;2023-06-01T09:21:09;4.40;;;2.80;;
4198;SDS011;2113;50.946;14.610;2023-06-01T09:23:39;2.90;;;2.10;;
4198;SDS011;2113;50.946;14.610;2023-06-01T09:26:11;5.67;;;2.83;;
4198;SDS011;2113;50.946;14.610;2023-06-01T09:28:51;4.27;;;2.50;;
4198;SDS011;2113;50.946;14.610;2023-06-01T09:31:34;7.03;;;2.80;;
4198;SDS011;2113;50.946;14.610;2023-06-01T09:34:04;3.83;;;2.33;;
4198;SDS011;2113;50.946;14.610;2023-06-01T09:36:33;6.20;;;2.40;;
4198;SDS011;2113;50.946;14.610;2023-06-01T09:39:04;4.50;;;2.30;;
4198;SDS011;2113;50.946;14.610;2023-06-01T09:41:44;4.53;;;2.30;;
4198;SDS011;2113;50.946;14.610;2023-06-01T09:44:22;6.43;;;2.90;;
4198;SDS011;2113;50.946;14.610;2023-06-01T09:46:55;5.20;;;2.30;;
4198;SDS011;2113;50.946;14.610;2023-06-01T09:49:24;4.10;;;2.80;;
4198;SDS011;2113;50.946;14.610;2023-06-01T09:52:07;4.00;;;2.63;;
4198;SDS011;2113;50.946;14.610;2023-06-01T09:54:41;5.80;;;2.50;;
4198;SDS011;2113;50.946;14.610;2023-06-01T09:57:11;4.50;;;2.47;;
4198;SDS011;2113;50.946;14.610;2023-06-01T09:59:41;7.10;;;3.27;;
4198;SDS011;2113;50.946;14.610;2023-06-01T10:02:12;8.63;;;3.23;;
4198;SDS011;2113;50.946;14.610;2023-06-01T10:04:48;3.77;;;2.60;;
4198;SDS011;2113;50.946;14.610;2023-06-01T10:07:19;6.03;;;3.03;;
4198;SDS011;2113;50.946;14.610;2023-06-01T10:09:56;6.30;;;2.57;;
4198;SDS011;2113;50.946;14.610;2023-06-01T10:12:26;5.60;;;2.70;;
4198;SDS011;2113;50.946;14.610;2023-06-01T10:14:55;3.53;;;2.10;;
4198;SDS011;2113;50.946;14.610;2023-06-01T10:17:24;4.43;;;2.60;;
4198;SDS011;2113;50.946;14.610;2023-06-01T10:19:53;8.40;;;4.20;;
4198;SDS011;2113;50.946;14.610;2023-06-01T10:22:25;8.40;;;2.10;;
4198;SDS011;2113;50.946;14.610;2023-06-01T10:24:55;3.60;;;2.80;;
4198;SDS011;2113;50.946;14.610;2023-06-01T10:27:29;6.43;;;2.37;;
4198;SDS011;2113;50.946;14.610;2023-06-01T10:30:06;5.17;;;2.70;;
4198;SDS011;2113;50.946;14.610;2023-06-01T10:32:44;3.93;;;2.50;;
4198;SDS011;2113;50.946;14.610;2023-06-01T10:38:22;5.83;;;2.83;;
4198;SDS011;2113;50.946;14.610;2023-06-01T10:40:55;4.40;;;3.00;;
4198;SDS011;2113;50.946;14.610;2023-06-01T10:43:53;3.70;;;2.40;;
4198;SDS011;2113;50.946;14.610;2023-06-01T10:46:41;4.13;;;2.10;;
4198;SDS011;2113;50.946;14.610;2023-06-01T10:49:11;8.97;;;2.83;;
4198;SDS011;2113;50.946;14.610;2023-06-01T10:51:40;5.83;;;3.27;;
4198;SDS011;2113;50.946;14.610;2023-06-01T10:54:24;6.33;;;2.53;;
4198;SDS011;2113;50.946;14.610;2023-06-01T11:00:10;4.37;;;2.60;;
4198;SDS011;2113;50.946;14.610;2023-06-01T11:02:43;5.00;;;2.13;;
4198;SDS011;2113;50.946;14.610;2023-06-01T11:05:34;4.47;;;2.20;;
4198;SDS011;2113;50.946;14.610;2023-06-01T11:08:03;5.57;;;2.30;;
4198;SDS011;2113;50.946;14.610;2023-06-01T11:13:27;4.33;;;2.60;;
4198;SDS011;2113;50.946;14.610;2023-06-01T11:18:59;4.13;;;2.40;;
4198;SDS011;2113;50.946;14.610;2023-06-01T11:21:30;5.37;;;2.57;;
4198;SDS011;2113;50.946;14.610;2023-06-01T11:24:06;3.85;;;2.20;;
4198;SDS011;2113;50.946;14.610;2023-06-01T11:26:37;7.53;;;2.57;;
4198;SDS011;2113;50.946;14.610;2023-06-01T11:29:11;3.70;;;2.70;;
4198;SDS011;2113;50.946;14.610;2023-06-01T11:31:42;5.50;;;3.43;;
4198;SDS011;2113;50.946;14.610;2023-06-01T11:34:13;8.70;;;4.83;;
4198;SDS011;2113;50.946;14.610;2023-06-01T11:36:43;14.40;;;2.87;;
4198;SDS011;2113;50.946;14.610;2023-06-01T11:39:18;5.13;;;2.70;;
4198;SDS011;2113;50.946;14.610;2023-06-01T11:44:45;5.00;;;3.45;;
4198;SDS011;2113;50.946;14.610;2023-06-01T11:47:27;5.40;;;3.22;;
4198;SDS011;2113;50.946;14.610;2023-06-01T11:49:56;6.10;;;2.67;;
4198;SDS011;2113;50.946;14.610;2023-06-01T11:52:25;10.82;;;2.97;;
4198;SDS011;2113;50.946;14.610;2023-06-01T11:54:53;7.10;;;2.90;;
4198;SDS011;2113;50.946;14.610;2023-06-01T11:57:31;10.35;;;3.85;;
4198;SDS011;2113;50.946;14.610;2023-06-01T12:00:01;6.60;;;2.60;;
4198;SDS011;2113;50.946;14.610;2023-06-01T12:02:30;3.77;;;2.20;;
4198;SDS011;2113;50.946;14.610;2023-06-01T12:04:59;5.30;;;2.67;;
4198;SDS011;2113;50.946;14.610;2023-06-01T12:07:42;7.97;;;3.40;;
4198;SDS011;2113;50.946;14.610;2023-06-01T12:10:11;4.75;;;2.13;;
4198;SDS011;2113;50.946;14.610;2023-06-01T12:12:42;6.03;;;2.70;;
4198;SDS011;2113;50.946;14.610;2023-06-01T12:15:13;4.10;;;2.43;;
4198;SDS011;2113;50.946;14.610;2023-06-01T12:17:45;5.63;;;2.67;;
4198;SDS011;2113;50.946;14.610;2023-06-01T12:20:28;4.95;;;2.95;;
4198;SDS011;2113;50.946;14.610;2023-06-01T12:22:57;8.77;;;2.50;;
4198;SDS011;2113;50.946;14.610;2023-06-01T12:25:27;4.90;;;2.70;;
4198;SDS011;2113;50.946;14.610;2023-06-01T12:28:04;3.97;;;2.20;;
4198;SDS011;2113;50.946;14.610;2023-06-01T12:30:35;4.93;;;2.73;;
4198;SDS011;2113;50.946;14.610;2023-06-01T12:33:04;6.50;;;3.50;;
4198;SDS011;2113;50.946;14.610;2023-06-01T12:35:32;4.17;;;2.87;;
4198;SDS011;2113;50.946;14.610;2023-06-01T12:38:15;9.23;;;2.67;;
4198;SDS011;2113;50.946;14.610;2023-06-01T12:40:43;8.40;;;2.90;;
4198;SDS011;2113;50.946;14.610;2023-06-01T12:43:17;6.10;;;3.30;;
4198;SDS011;2113;50.946;14.610;2023-06-01T12:45:49;5.33;;;2.50;;
4198;SDS011;2113;50.946;14.610;2023-06-01T12:48:29;5.43;;;2.90;;
4198;SDS011;2113;50.946;14.610;2023-06-01T12:50:58;4.87;;;2.80;;
4198;SDS011;2113;50.946;14.610;2023-06-01T12:53:28;4.82;;;2.53;;
4198;SDS011;2113;50.946;14.610;2023-06-01T12:55:57;4.13;;;2.38;;
4198;SDS011;2113;50.946;14.610;2023-06-01T12:58:26;4.53;;;2.40;;
4198;SDS011;2113;50.946;14.610;2023-06-01T13:00:57;6.05;;;3.28;;
4198;SDS011;2113;50.946;14.610;2023-06-01T13:03:26;5.00;;;2.92;;
4198;SDS011;2113;50.946;14.610;2023-06-01T13:05:55;6.50;;;3.17;;
4198;SDS011;2113;50.946;14.610;2023-06-01T13:08:24;3.88;;;2.33;;
4198;SDS011;2113;50.946;14.610;2023-06-01T13:10:52;4.37;;;2.60;;
4198;SDS011;2113;50.946;14.610;2023-06-01T13:13:20;6.40;;;4.03;;
4198;SDS011;2113;50.946;14.610;2023-06-01T13:15:50;6.00;;;3.37;;
4198;SDS011;2113;50.946;14.610;2023-06-01T13:18:19;8.93;;;3.40;;
4198;SDS011;2113;50.946;14.610;2023-06-01T13:20:49;5.07;;;2.97;;
4198;SDS011;2113;50.946;14.610;2023-06-01T13:23:17;11.40;;;3.57;;
4198;SDS011;2113;50.946;14.610;2023-06-01T13:25:46;5.47;;;3.47;;
4198;SDS011;2113;50.946;14.610;2023-06-01T13:28:14;4.78;;;3.35;;
4198;SDS011;2113;50.946;14.610;2023-06-01T13:30:42;10.20;;;4.17;;
4198;SDS011;2113;50.946;14.610;2023-06-01T13:33:10;5.87;;;3.47;;
4198;SDS011;2113;50.946;14.610;2023-06-01T13:35:40;8.43;;;3.63;;
4198;SDS011;2113;50.946;14.610;2023-06-01T13:38:09;4.10;;;3.20;;
4198;SDS011;2113;50.946;14.610;2023-06-01T13:40:37;4.00;;;2.80;;
4198;SDS011;2113;50.946;14.610;2023-06-01T13:43:05;7.47;;;3.25;;
4198;SDS011;2113;50.946;14.610;2023-06-01T13:45:34;5.18;;;3.13;;
4198;SDS011;2113;50.946;14.610;2023-06-01T13:48:02;6.30;;;4.23;;
4198;SDS011;2113;50.946;14.610;2023-06-01T13:50:31;14.83;;;4.50;;
4198;SDS011;2113;50.946;14.610;2023-06-01T13:53:01;6.97;;;4.00;;
4198;SDS011;2113;50.946;14.610;2023-06-01T13:55:32;9.70;;;3.53;;
4198;SDS011;2113;50.946;14.610;2023-06-01T13:58:01;4.60;;;3.60;;
4198;SDS011;2113;50.946;14.610;2023-06-01T14:00:30;8.20;;;3.50;;
4198;SDS011;2113;50.946;14.610;2023-06-01T14:02:58;4.47;;;3.53;;
4198;SDS011;2113;50.946;14.610;2023-06-01T14:05:27;5.20;;;3.70;;
4198;SDS011;2113;50.946;14.610;2023-06-01T14:08:17;7.27;;;3.50;;
4198;SDS011;2113;50.946;14.610;2023-06-01T14:10:45;11.13;;;3.50;;
4198;SDS011;2113;50.946;14.610;2023-06-01T14:13:14;5.90;;;3.50;;
4198;SDS011;2113;50.946;14.610;2023-06-01T14:15:45;5.33;;;3.70;;
4198;SDS011;2113;50.946;14.610;2023-06-01T14:18:13;5.57;;;3.20;;
4198;SDS011;2113;50.946;14.610;2023-06-01T14:20:42;6.97;;;3.50;;
4198;SDS011;2113;50.946;14.610;2023-06-01T14:23:10;5.50;;;3.33;;
4198;SDS011;2113;50.946;14.610;2023-06-01T14:25:40;5.07;;;3.03;;
4198;SDS011;2113;50.946;14.610;2023-06-01T14:28:09;5.60;;;3.17;;
4198;SDS011;2113;50.946;14.610;2023-06-01T14:30:37;5.87;;;3.77;;
4198;SDS011;2113;50.946;14.610;2023-06-01T14:33:06;7.03;;;4.00;;
4198;SDS011;2113;50.946;14.610;2023-06-01T14:35:34;5.50;;;3.40;;
4198;SDS011;2113;50.946;14.610;2023-06-01T14:38:02;6.20;;;4.00;;
4198;SDS011;2113;50.946;14.610;2023-06-01T14:40:31;7.70;;;4.32;;
4198;SDS011;2113;50.946;14.610;2023-06-01T14:43:00;6.93;;;4.03;;
4198;SDS011;2113;50.946;14.610;2023-06-01T14:45:29;7.65;;;4.28;;
4198;SDS011;2113;50.946;14.610;2023-06-01T14:47:59;5.50;;;3.90;;
4198;SDS011;2113;50.946;14.610;2023-06-01T14:50:27;7.10;;;4.23;;
4198;SDS011;2113;50.946;14.610;2023-06-01T14:52:55;6.70;;;3.90;;
4198;SDS011;2113;50.946;14.610;2023-06-01T14:55:26;7.93;;;4.40;;
4198;SDS011;2113;50.946;14.610;2023-06-01T14:57:55;7.93;;;5.33;;
4198;SDS011;2113;50.946;14.610;2023-06-01T15:00:25;7.80;;;3.87;;
4198;SDS011;2113;50.946;14.610;2023-06-01T15:02:54;9.20;;;4.97;;
4198;SDS011;2113;50.946;14.610;2023-06-01T15:05:23;7.60;;;4.38;;
4198;SDS011;2113;50.946;14.610;2023-06-01T15:07:52;6.72;;;4.55;;
4198;SDS011;2113;50.946;14.610;2023-06-01T15:10:20;7.17;;;4.53;;
4198;SDS011;2113;50.946;14.610;2023-06-01T15:12:48;6.33;;;5.00;;
4198;SDS011;2113;50.946;14.610;2023-06-01T15:15:18;8.53;;;4.90;;
4198;SDS011;2113;50.946;14.610;2023-06-01T15:17:48;8.90;;;5.37;;
4198;SDS011;2113;50.946;14.610;2023-06-01T15:20:17;7.80;;;5.40;;
4198;SDS011;2113;50.946;14.610;2023-06-01T15:22:45;6.27;;;4.80;;
4198;SDS011;2113;50.946;14.610;2023-06-01T15:25:13;9.50;;;4.87;;
4198;SDS011;2113;50.946;14.610;2023-06-01T15:27:42;8.30;;;4.83;;
4198;SDS011;2113;50.946;14.610;2023-06-01T15:30:10;7.57;;;5.13;;
4198;SDS011;2113;50.946;14.610;2023-06-01T15:32:39;7.40;;;4.00;;
4198;SDS011;2113;50.946;14.610;2023-06-01T15:35:15;7.45;;;4.43;;
4198;SDS011;2113;50.946;14.610;2023-06-01T15:37:43;10.32;;;5.20;;
4198;SDS011;2113;50.946;14.610;2023-06-01T15:40:12;7.93;;;5.45;;